Time;durP1;ratioP1;P1;durP2;ratioP2;P2;SDS_P1;SDS_P2;PMS_P1;PMS_P2;Temp;Humidity;BMP_temperature;BMP_pressure;BME280_temperature;BME280_humidity;BME280_pressure;Samples;Min_cycle;Max_cycle;Signal;HPM_P1;HPM_P2
2021/10/14 00:03:11;;;;;;;;;;;12.00;99.90;;;;;;8387019;28;19927;-71
2021/10/14 00:07:14;;;;;;;;;;;12.00;99.90;;;;;;8385458;28;19927;-71
2021/10/14 00:11:15;;;;;;;;;;;12.00;99.90;;;;;;8388669;28;19921;-71
2021/10/14 00:15:17;;;;;;;;;;;12.00;99.90;;;;;;8389205;28;19924;-71
2021/10/14 00:19:19;;;;;;;;;;;12.00;99.90;;;;;;8373479;28;19924;-71
2021/10/14 00:23:21;;;;;;;;;;;12.00;99.90;;;;;;8385177;28;20209;-71
2021/10/14 00:27:22;;;;;;;;;;;12.00;99.90;;;;;;8388764;28;19927;-71
2021/10/14 00:31:24;;;;;;;;;;;12.00;99.90;;;;;;8392340;28;19970;-72
2021/10/14 00:35:26;;;;;;;;;;;12.00;99.90;;;;;;8388980;28;19967;-72
2021/10/14 00:39:27;;;;;;;;;;;12.00;99.90;;;;;;8386965;28;19920;-72
2021/10/14 00:43:29;;;;;;;;;;;12.10;99.90;;;;;;8390881;28;19924;-72
2021/10/14 00:47:31;;;;;;;;;;;12.10;99.90;;;;;;8384683;28;20257;-71
2021/10/14 00:51:32;;;;;;;;;;;12.10;99.90;;;;;;8387736;28;19920;-72
2021/10/14 00:55:34;;;;;;;;;;;12.10;99.90;;;;;;8388917;28;20399;-72
2021/10/14 00:59:36;;;;;;;;;;;12.10;99.90;;;;;;8405224;28;20307;-71
2021/10/14 01:03:37;;;;;;;;;;;12.10;99.90;;;;;;8402418;28;20327;-71
2021/10/14 01:07:40;;;;;;;;;;;12.20;99.90;;;;;;8403836;28;19936;-72
2021/10/14 01:11:41;;;;;;;;;;;12.20;99.90;;;;;;8375794;28;20372;-71
2021/10/14 01:15:44;;;;;;;;;;;12.20;99.90;;;;;;8387244;28;19927;-71
2021/10/14 01:19:46;;;;;;;;;;;12.20;99.90;;;;;;8378937;28;19933;-71
2021/10/14 01:23:48;;;;;;;;;;;12.20;99.90;;;;;;8379209;28;19972;-71
2021/10/14 01:27:50;;;;;;;;;;;12.20;99.90;;;;;;8387924;28;19924;-71
2021/10/14 01:31:51;;;;;;;;;;;12.20;99.90;;;;;;8386691;28;20236;-71
2021/10/14 01:35:53;;;;;;;;;;;12.20;99.90;;;;;;8386074;28;19927;-72
2021/10/14 01:39:55;;;;;;;;;;;12.30;99.90;;;;;;8386901;28;19920;-71
2021/10/14 01:43:57;;;;;;;;;;;12.30;99.90;;;;;;8389758;28;19928;-71
2021/10/14 01:47:58;;;;;;;;;;;12.30;99.90;;;;;;8380992;28;20298;-71
2021/10/14 01:52:00;;;;;;;;;;;12.40;99.90;;;;;;8387143;28;20388;-71
2021/10/14 01:56:02;;;;;;;;;;;12.30;99.90;;;;;;8384515;28;19935;-71
2021/10/14 02:00:04;;;;;;;;;;;12.40;99.90;;;;;;8386505;28;19927;-71
2021/10/14 02:04:06;;;;;;;;;;;12.40;99.90;;;;;;8389431;28;19921;-72
2021/10/14 02:08:08;;;;;;;;;;;12.40;99.90;;;;;;8394318;28;19924;-71
2021/10/14 02:12:09;;;;;;;;;;;12.40;99.90;;;;;;8396142;28;19925;-72
2021/10/14 02:16:11;;;;;;;;;;;12.40;99.90;;;;;;8385969;28;19928;-72
2021/10/14 02:20:13;;;;;;;;;;;12.40;99.90;;;;;;8387937;28;20204;-72
2021/10/14 02:24:15;;;;;;;;;;;12.40;99.90;;;;;;8393080;28;19928;-71
2021/10/14 02:28:16;;;;;;;;;;;12.40;99.90;;;;;;8392465;28;19935;-71
2021/10/14 02:32:18;;;;;;;;;;;12.40;99.90;;;;;;8395369;28;19920;-72
2021/10/14 02:36:19;;;;;;;;;;;12.30;99.90;;;;;;8393609;28;19931;-72
2021/10/14 02:40:21;;;;;;;;;;;12.30;99.90;;;;;;8393410;28;20027;-72
2021/10/14 02:44:23;;;;;;;;;;;12.30;99.90;;;;;;8389295;28;19920;-72
2021/10/14 02:48:24;;;;;;;;;;;12.30;99.90;;;;;;8385913;28;19928;-72
2021/10/14 02:52:26;;;;;;;;;;;12.30;99.90;;;;;;8389950;28;19933;-72
2021/10/14 02:56:28;;;;;;;;;;;12.30;99.90;;;;;;8390366;28;19927;-72
2021/10/14 03:00:29;;;;;;;;;;;12.30;99.90;;;;;;8374191;28;19924;-72
2021/10/14 03:04:59;;;;;;;;;;;12.30;99.90;;;;;;8393547;28;19928;-72
2021/10/14 03:09:01;;;;;;;;;;;12.30;99.90;;;;;;8382849;28;19920;-71
2021/10/14 03:13:02;;;;;;;;;;;12.30;99.90;;;;;;8371358;28;19927;-71
2021/10/14 03:17:04;;;;;;;;;;;12.30;99.90;;;;;;8363391;28;20360;-72
2021/10/14 03:21:06;;;;;;;;;;;12.30;99.90;;;;;;8387091;28;20269;-72
2021/10/14 03:25:08;;;;;;;;;;;12.30;99.90;;;;;;8390533;28;20348;-71
2021/10/14 03:29:09;;;;;;;;;;;12.30;99.90;;;;;;8371983;28;20379;-72
2021/10/14 03:33:11;;;;;;;;;;;12.30;99.90;;;;;;8388582;28;19943;-71
2021/10/14 03:37:13;;;;;;;;;;;12.30;99.90;;;;;;8387262;28;19967;-71
2021/10/14 03:41:14;;;;;;;;;;;12.30;99.90;;;;;;8405161;28;19924;-71
2021/10/14 03:45:16;;;;;;;;;;;12.40;99.90;;;;;;8393354;28;19920;-71
2021/10/14 03:49:18;;;;;;;;;;;12.40;99.90;;;;;;8394389;28;19920;-71
2021/10/14 03:53:19;;;;;;;;;;;12.40;99.90;;;;;;8387028;28;20277;-71
2021/10/14 03:57:21;;;;;;;;;;;12.40;99.90;;;;;;8376739;28;19936;-71
2021/10/14 04:01:23;;;;;;;;;;;12.40;99.90;;;;;;8395293;28;19920;-71
2021/10/14 04:05:24;;;;;;;;;;;12.40;99.90;;;;;;8384650;28;19927;-71
2021/10/14 04:09:26;;;;;;;;;;;12.40;99.90;;;;;;8384659;28;19939;-72
2021/10/14 04:13:28;;;;;;;;;;;12.40;99.90;;;;;;8388019;28;19920;-72
2021/10/14 04:17:30;;;;;;;;;;;12.40;99.90;;;;;;8389463;28;19924;-71
2021/10/14 04:21:32;;;;;;;;;;;12.50;99.90;;;;;;8386481;28;19966;-72
2021/10/14 04:25:34;;;;;;;;;;;12.40;99.90;;;;;;8403195;28;19927;-71
2021/10/14 04:29:35;;;;;;;;;;;12.40;99.90;;;;;;8392684;28;19921;-72
2021/10/14 04:33:37;;;;;;;;;;;12.40;99.90;;;;;;8400863;28;19920;-72
2021/10/14 04:37:40;;;;;;;;;;;12.50;99.90;;;;;;8372643;28;19925;-72
2021/10/14 04:41:43;;;;;;;;;;;12.50;99.90;;;;;;8383615;28;20368;-72
2021/10/14 04:45:44;;;;;;;;;;;12.50;99.90;;;;;;8386137;28;19924;-71
2021/10/14 04:49:46;;;;;;;;;;;12.50;99.90;;;;;;8386357;28;20000;-71
2021/10/14 04:53:48;;;;;;;;;;;12.50;99.90;;;;;;8393953;28;19935;-71
2021/10/14 04:57:49;;;;;;;;;;;12.50;99.90;;;;;;8390006;28;20294;-72
2021/10/14 05:01:51;;;;;;;;;;;12.50;99.90;;;;;;8388444;28;19932;-72
2021/10/14 05:05:53;;;;;;;;;;;12.50;99.90;;;;;;8390324;28;19927;-72
2021/10/14 05:09:55;;;;;;;;;;;12.50;99.90;;;;;;8387930;28;20327;-71
2021/10/14 05:13:56;;;;;;;;;;;12.40;99.90;;;;;;8389909;28;20432;-71
2021/10/14 05:17:58;;;;;;;;;;;12.50;99.90;;;;;;8385085;28;20473;-72
2021/10/14 05:21:59;;;;;;;;;;;12.50;99.90;;;;;;8359879;28;20221;-72
2021/10/14 05:26:01;;;;;;;;;;;12.50;99.90;;;;;;8372748;28;19924;-72
2021/10/14 05:30:03;;;;;;;;;;;12.50;99.90;;;;;;8386273;28;20013;-72
2021/10/14 05:34:05;;;;;;;;;;;12.50;99.90;;;;;;8360555;28;19982;-72
2021/10/14 05:38:07;;;;;;;;;;;12.50;99.90;;;;;;8349342;28;19924;-72
2021/10/14 05:42:09;;;;;;;;;;;12.60;99.90;;;;;;8386096;28;19920;-72
2021/10/14 05:46:10;;;;;;;;;;;12.60;99.90;;;;;;8386403;28;19935;-72
2021/10/14 05:50:12;;;;;;;;;;;12.60;99.90;;;;;;8388394;28;19927;-71
2021/10/14 05:54:14;;;;;;;;;;;12.60;99.90;;;;;;8388191;28;19921;-71
2021/10/14 05:58:15;;;;;;;;;;;12.60;99.90;;;;;;8389679;28;19927;-72
2021/10/14 06:02:17;;;;;;;;;;;12.70;99.90;;;;;;8382706;28;19925;-72
2021/10/14 06:06:19;;;;;;;;;;;12.70;99.90;;;;;;8384081;28;19920;-72
2021/10/14 06:10:20;;;;;;;;;;;12.70;99.90;;;;;;8384778;28;19939;-71
2021/10/14 06:14:25;;;;;;;;;;;12.70;99.90;;;;;;8385120;28;19924;-71
2021/10/14 06:18:27;;;;;;;;;;;12.70;99.90;;;;;;8388346;28;19927;-73
2021/10/14 06:22:28;;;;;;;;;;;12.70;99.90;;;;;;8386745;28;20276;-71
2021/10/14 06:26:30;;;;;;;;;;;12.70;99.90;;;;;;8379325;28;19925;-71
2021/10/14 06:30:32;;;;;;;;;;;12.80;99.90;;;;;;8381215;28;19920;-72
2021/10/14 06:34:34;;;;;;;;;;;12.80;99.90;;;;;;8380880;28;19966;-72
2021/10/14 06:38:36;;;;;;;;;;;12.80;99.90;;;;;;8381728;28;19977;-72
2021/10/14 06:42:38;;;;;;;;;;;12.80;99.90;;;;;;8388096;28;19925;-72
2021/10/14 06:46:40;;;;;;;;;;;12.80;99.90;;;;;;8386088;28;19921;-72
2021/10/14 06:50:41;;;;;;;;;;;12.90;99.90;;;;;;8394979;28;19985;-72
2021/10/14 06:54:44;;;;;;;;;;;12.90;99.90;;;;;;8391129;28;19920;-72
2021/10/14 06:58:46;;;;;;;;;;;12.90;99.90;;;;;;8380980;28;19920;-71
2021/10/14 07:02:48;;;;;;;;;;;12.90;99.90;;;;;;8393312;28;19943;-72
2021/10/14 07:06:50;;;;;;;;;;;12.90;99.90;;;;;;8387357;28;19977;-72
2021/10/14 07:10:51;;;;;;;;;;;12.90;99.90;;;;;;8373205;28;20125;-72
2021/10/14 07:14:54;;;;;;;;;;;12.90;99.90;;;;;;8409696;28;19920;-72
2021/10/14 07:18:55;;;;;;;;;;;12.90;99.90;;;;;;8390925;28;20309;-72
2021/10/14 07:23:05;;;;;;;;;;;12.90;99.90;;;;;;8377986;28;20384;-72
2021/10/14 07:27:09;;;;;;;;;;;13.00;99.90;;;;;;8408065;28;19928;-72
2021/10/14 07:31:11;;;;;;;;;;;13.00;99.90;;;;;;8400153;28;19924;-72
2021/10/14 07:35:12;;;;;;;;;;;13.00;99.90;;;;;;8405129;28;20390;-72
2021/10/14 07:39:14;;;;;;;;;;;13.00;99.90;;;;;;8388930;28;19974;-72
2021/10/14 07:43:16;;;;;;;;;;;13.00;99.90;;;;;;8387670;28;19924;-72
2021/10/14 07:47:18;;;;;;;;;;;13.10;99.90;;;;;;8387624;28;19920;-72
2021/10/14 07:51:20;;;;;;;;;;;13.10;99.90;;;;;;8392633;28;20272;-72
2021/10/14 07:55:22;;;;;;;;;;;13.10;99.90;;;;;;8390548;28;19951;-72
2021/10/14 07:59:23;;;;;;;;;;;13.10;99.90;;;;;;8393195;28;19927;-72
2021/10/14 08:03:25;;;;;;;;;;;13.20;99.90;;;;;;8391586;28;19920;-72
2021/10/14 08:07:27;;;;;;;;;;;13.20;99.90;;;;;;8382750;28;19957;-72
2021/10/14 08:11:29;;;;;;;;;;;13.20;99.90;;;;;;8400066;28;19920;-72
2021/10/14 08:15:31;;;;;;;;;;;13.20;99.90;;;;;;8387154;28;19947;-72
2021/10/14 08:19:32;;;;;;;;;;;13.20;99.90;;;;;;8379234;28;19943;-72
2021/10/14 08:23:34;;;;;;;;;;;13.20;99.90;;;;;;8388462;28;19948;-72
2021/10/14 08:27:35;;;;;;;;;;;13.20;99.90;;;;;;8383356;28;19947;-72
2021/10/14 08:31:37;;;;;;;;;;;13.20;99.90;;;;;;8385445;28;20382;-72
2021/10/14 08:35:39;;;;;;;;;;;13.20;99.90;;;;;;8387784;28;19920;-72
2021/10/14 08:39:41;;;;;;;;;;;13.30;99.90;;;;;;8377455;28;19928;-72
2021/10/14 08:43:44;;;;;;;;;;;13.30;99.90;;;;;;8387946;28;19927;-72
2021/10/14 08:47:46;;;;;;;;;;;13.30;99.90;;;;;;8395805;28;19955;-73
2021/10/14 08:51:48;;;;;;;;;;;13.40;99.90;;;;;;8398586;28;19921;-72
2021/10/14 08:55:50;;;;;;;;;;;13.40;99.90;;;;;;8386499;28;19920;-72
2021/10/14 08:59:52;;;;;;;;;;;13.50;99.90;;;;;;8384509;28;19921;-72
2021/10/14 09:03:54;;;;;;;;;;;13.60;99.90;;;;;;8379998;28;19920;-72
2021/10/14 09:07:55;;;;;;;;;;;13.60;99.90;;;;;;8389407;28;19921;-73
2021/10/14 09:12:04;;;;;;;;;;;13.70;99.90;;;;;;8389807;28;19986;-73
2021/10/14 09:16:18;;;;;;;;;;;13.70;99.90;;;;;;8384857;28;19990;-72
2021/10/14 09:20:26;;;;;;;;;;;13.80;99.90;;;;;;8392935;28;19920;-72
2021/10/14 09:24:37;;;;;;;;;;;13.80;99.90;;;;;;8375975;28;19921;-72
2021/10/14 09:28:39;;;;;;;;;;;13.80;99.90;;;;;;8383557;28;19920;-72
2021/10/14 09:32:42;;;;;;;;;;;13.90;99.90;;;;;;8389823;28;20275;-72
2021/10/14 09:36:43;;;;;;;;;;;13.90;99.90;;;;;;8395210;28;19921;-73
2021/10/14 09:40:59;;;;;;;;;;;13.90;99.90;;;;;;8390355;28;19927;-74
2021/10/14 09:45:01;;;;;;;29.95;16.92;;;14.10;99.90;;;;;;8382433;28;19920;-72
2021/10/14 09:49:28;;;;;;;27.27;15.88;;;14.10;99.90;;;;;;8370577;28;20541;-72
2021/10/14 09:53:29;;;;;;;38.45;20.90;;;14.20;99.90;;;;;;8349688;28;20395;-73
2021/10/14 09:57:31;;;;;;;;;;;14.30;99.90;;;;;;8371603;28;19947;-72
2021/10/14 10:01:38;;;;;;;;;;;14.40;99.90;;;;;;8386855;28;19996;-72
2021/10/14 10:05:40;;;;;;;;;;;14.40;99.90;;;;;;8386858;28;19928;-72
2021/10/14 10:09:42;;;;;;;;;;;14.50;99.90;;;;;;8385344;28;19924;-72
2021/10/14 10:13:45;;;;;;;;;;;14.60;99.90;;;;;;8385626;28;19924;-72
2021/10/14 10:17:47;;;;;;;;;;;14.70;99.90;;;;;;8366673;28;19924;-72
2021/10/14 10:21:49;;;;;;;;;;;14.70;99.90;;;;;;8378234;28;19943;-72
2021/10/14 10:25:51;;;;;;;;;;;14.70;99.90;;;;;;8388007;28;20301;-72
2021/10/14 10:30:23;;;;;;;;;;;14.70;99.90;;;;;;8393243;28;19928;-72
2021/10/14 10:34:53;;;;;;;;;;;14.80;99.90;;;;;;8394518;28;19920;-72
2021/10/14 10:38:51;;;;;;;;;;;14.80;99.90;;;;;;8392416;28;20370;-72
2021/10/14 10:42:58;;;;;;;;;;;14.70;99.90;;;;;;8413207;28;19966;-73
2021/10/14 10:47:00;;;;;;;;;;;14.70;99.90;;;;;;8390619;28;19920;-73
2021/10/14 10:51:02;;;;;;;;;;;14.70;99.90;;;;;;8387520;28;20367;-73
2021/10/14 10:55:22;;;;;;;;;;;14.70;99.90;;;;;;8396032;28;19921;-73
2021/10/14 10:59:24;;;;;;;;;;;14.80;99.90;;;;;;8394527;28;20008;-73
2021/10/14 11:03:26;;;;;;;;;;;14.80;99.90;;;;;;8407682;28;20398;-72
2021/10/14 11:07:30;;;;;;;;;;;14.80;99.90;;;;;;8395436;28;19928;-73
2021/10/14 11:11:32;;;;;;;;;;;14.90;99.90;;;;;;8379682;28;19981;-72
2021/10/14 11:15:34;;;;;;;;;;;14.80;99.90;;;;;;8382407;28;19921;-72
2021/10/14 11:19:39;;;;;;;;;;;14.80;99.90;;;;;;8385690;28;19942;-72
2021/10/14 11:23:41;;;;;;;;;;;14.80;99.90;;;;;;8390917;28;20018;-72
2021/10/14 11:27:58;;;;;;;;;;;14.90;99.90;;;;;;8383005;28;19951;-72
2021/10/14 11:32:03;;;;;;;;;;;14.90;99.90;;;;;;8386081;28;20291;-73
2021/10/14 11:36:05;;;;;;;;;;;14.80;99.90;;;;;;8382035;28;20007;-72
2021/10/14 11:40:07;;;;;;;;;;;14.80;99.90;;;;;;8365343;28;19924;-72
2021/10/14 11:44:10;;;;;;;;;;;14.80;99.90;;;;;;8384174;28;19920;-72
2021/10/14 11:48:44;;;;;;;;;;;14.90;99.90;;;;;;8376760;28;19921;-72
2021/10/14 11:52:57;;;;;;;;;;;15.10;99.90;;;;;;8335706;28;19927;-72
2021/10/14 11:56:58;;;;;;;;;;;15.30;99.90;;;;;;8377223;28;19928;-73
2021/10/14 12:01:05;;;;;;;;;;;15.30;99.90;;;;;;8384503;28;19921;-72
2021/10/14 12:05:07;;;;;;;;;;;15.20;99.90;;;;;;8386166;28;19977;-72
2021/10/14 12:09:09;;;;;;;;;;;15.10;99.90;;;;;;8371054;28;20270;-72
2021/10/14 12:13:13;;;;;;;;;;;15.00;99.90;;;;;;8388364;28;19966;-72
2021/10/14 12:17:17;;;;;;;;;;;15.10;99.90;;;;;;8374492;28;20389;-72
2021/10/14 12:21:29;;;;;;;;;;;15.20;99.90;;;;;;8377211;28;20507;-72
2021/10/14 12:25:35;;;;;;;;;;;15.30;99.90;;;;;;8385870;28;20396;-72
2021/10/14 12:29:44;;;;;;;;;;;15.30;99.90;;;;;;8391810;28;19928;-73
2021/10/14 12:33:55;;;;;;;;;;;15.30;99.90;;;;;;8391499;28;19928;-72
2021/10/14 12:38:04;;;;;;;;;;;15.40;99.90;;;;;;8385030;28;20025;-73
2021/10/14 12:42:07;;;;;;;;;;;15.60;99.90;;;;;;8380402;28;19939;-73
2021/10/14 12:46:21;;;;;;;;;;;15.60;99.90;;;;;;8381623;28;20272;-72
2021/10/14 12:54:28;;;;;;;;;;;15.50;99.90;;;;;;8387837;28;19920;-72
2021/10/14 12:58:29;;;;;;;;;;;15.40;99.90;;;;;;8389079;28;19920;-72
2021/10/14 13:02:31;;;;;;;;;;;15.40;99.90;;;;;;8391644;28;19920;-72
2021/10/14 13:06:34;;;;;;;;;;;15.30;99.90;;;;;;8384452;28;19924;-73
2021/10/14 13:10:35;;;;;;;;;;;15.20;99.90;;;;;;8376536;28;19951;-72
2021/10/14 13:14:37;;;;;;;;;;;15.20;99.90;;;;;;8382441;28;19931;-72
2021/10/14 13:18:39;;;;;;;;;;;15.20;99.90;;;;;;8382709;28;20348;-72
2021/10/14 13:22:43;;;;;;;;;;;15.20;99.90;;;;;;8369277;28;19924;-72
2021/10/14 13:26:45;;;;;;;;;;;15.20;99.90;;;;;;8379576;28;19924;-72
2021/10/14 13:30:46;;;;;;;;;;;15.20;99.90;;;;;;8385635;28;19974;-72
2021/10/14 13:34:48;;;;;;;;;;;15.20;99.90;;;;;;8409381;28;19931;-72
2021/10/14 13:38:53;;;;;;;;;;;15.20;99.90;;;;;;8376421;28;19942;-72
2021/10/14 13:42:56;;;;;;;;;;;15.20;99.90;;;;;;8399276;28;20402;-72
2021/10/14 13:46:58;;;;;;;;;;;15.20;99.90;;;;;;8380380;28;19943;-72
2021/10/14 13:51:00;;;;;;;;;;;15.20;99.90;;;;;;8389386;28;19935;-72
2021/10/14 13:55:06;;;;;;;;;;;15.20;99.90;;;;;;8373481;28;19928;-72
2021/10/14 13:59:07;;;;;;;;;;;15.20;99.90;;;;;;8366480;28;20318;-72
2021/10/14 14:03:09;;;;;;;;;;;15.20;99.90;;;;;;8389207;28;20389;-73
2021/10/14 14:07:11;;;;;;;;;;;15.20;99.90;;;;;;8389398;28;19921;-73
2021/10/14 14:11:13;;;;;;;;;;;15.30;99.90;;;;;;8393591;28;19924;-72
2021/10/14 14:15:15;;;;;;;;;;;15.30;99.90;;;;;;8406227;28;19965;-72
2021/10/14 14:19:17;;;;;;;;;;;15.30;99.90;;;;;;8388523;28;19931;-72
2021/10/14 14:23:18;;;;;;;;;;;15.30;99.90;;;;;;8389500;28;19924;-73
2021/10/14 14:27:20;;;;;;;;;;;15.20;99.90;;;;;;8410799;28;19931;-72
2021/10/14 14:31:24;;;;;;;;;;;15.20;99.90;;;;;;8383234;28;19936;-72
2021/10/14 14:35:25;;;;;;;;;;;15.20;99.90;;;;;;8372039;28;19927;-72
2021/10/14 14:39:27;;;;;;;;;;;15.20;99.90;;;;;;8389091;28;19920;-72
2021/10/14 14:43:29;;;;;;;;;;;15.30;99.90;;;;;;8390632;28;19924;-73
2021/10/14 14:47:31;;;;;;;;;;;15.30;99.90;;;;;;8392184;28;19940;-72
2021/10/14 14:51:33;;;;;;;;;;;15.30;99.90;;;;;;8408024;28;19920;-72
2021/10/14 14:55:35;;;;;;;;;;;15.40;99.90;;;;;;8388345;28;19921;-73
2021/10/14 14:59:36;;;;;;;;;;;15.40;99.90;;;;;;8389300;28;19920;-73
2021/10/14 15:03:39;;;;;;;;;;;15.40;99.90;;;;;;8397973;28;19920;-73
2021/10/14 15:07:41;;;;;;;;;;;15.40;99.90;;;;;;8376214;28;20277;-73
2021/10/14 15:11:43;;;;;;;;;;;15.40;99.90;;;;;;8398455;28;19989;-73
2021/10/14 15:15:44;;;;;;;;;;;15.40;99.90;;;;;;8396948;28;19924;-72
2021/10/14 15:19:46;;;;;;;;;;;15.40;99.90;;;;;;8379103;28;19975;-73
2021/10/14 15:23:52;;;;;;;;;;;15.40;99.90;;;;;;8385984;28;19920;-73
2021/10/14 15:27:53;;;;;;;;;;;15.50;99.90;;;;;;8399252;28;20367;-73
2021/10/14 15:31:55;;;;;;;;;;;15.50;99.90;;;;;;8390899;28;19921;-73
2021/10/14 15:35:57;;;;;;;;;;;15.50;99.90;;;;;;8393723;28;19947;-73
2021/10/14 15:39:59;;;;;;;;;;;15.50;99.90;;;;;;8388092;28;19921;-72
2021/10/14 15:44:00;;;;;;;;;;;15.40;99.90;;;;;;8389927;28;19924;-73
2021/10/14 15:48:03;;;;;;;;;;;15.40;99.90;;;;;;8370392;28;19924;-73
2021/10/14 15:52:05;;;;;;;;;;;15.30;99.90;;;;;;8387044;28;19924;-73
2021/10/14 15:56:06;;;;;;;;;;;15.30;99.90;;;;;;8379699;28;19924;-73
2021/10/14 16:00:08;;;;;;;;;;;15.20;99.90;;;;;;8388443;28;19929;-73
2021/10/14 16:04:10;;;;;;;;;;;15.20;99.90;;;;;;8400143;28;19927;-72
2021/10/14 16:08:12;;;;;;;;;;;15.10;99.90;;;;;;8386396;28;19994;-73
2021/10/14 16:12:14;;;;;;;;;;;15.10;99.90;;;;;;8362532;28;19986;-73
2021/10/14 16:16:15;;;;;;;;;;;15.10;99.90;;;;;;8361223;28;19973;-72
2021/10/14 16:20:17;;;;;;;;;;;15.10;99.90;;;;;;8350938;28;20360;-72
2021/10/14 16:24:21;;;;;;;;;;;15.10;99.90;;;;;;8362524;28;19936;-73
2021/10/14 16:28:23;;;;;;;;;;;15.00;99.90;;;;;;8360641;28;19925;-72
2021/10/14 16:32:28;;;;;;;;;;;15.00;99.90;;;;;;8364181;28;20002;-72
2021/10/14 16:36:30;;;;;;;;;;;15.00;99.90;;;;;;8359894;28;20395;-73
2021/10/14 16:40:31;;;;;;;;;;;15.00;99.90;;;;;;8361513;28;19920;-73
2021/10/14 16:44:33;;;;;;;;;;;14.90;99.90;;;;;;8359917;28;20368;-73
2021/10/14 16:48:34;;;;;;;;;;;14.90;99.90;;;;;;8358988;28;20372;-73
2021/10/14 16:52:39;;;;;;;;;;;14.90;99.90;;;;;;8356359;28;20712;-73
2021/10/14 16:56:43;;;;;;;;;;;14.90;99.90;;;;;;8358706;28;20372;-73
2021/10/14 17:00:44;;;;;;;;;;;14.90;99.90;;;;;;8358953;28;19928;-73
2021/10/14 17:04:46;;;;;;;;;;;14.90;99.90;;;;;;8354511;28;19920;-73
2021/10/14 17:08:48;;;;;;;;;;;14.80;99.90;;;;;;8359462;28;20365;-73
2021/10/14 17:12:49;;;;;;;;;;;14.80;99.90;;;;;;8355368;28;19927;-72
2021/10/14 17:16:51;;;;;;;;;;;14.70;99.90;;;;;;8356550;28;19920;-72
2021/10/14 17:21:20;;;;;;;;;;;14.70;99.90;;;;;;8354740;28;19955;-72
2021/10/14 17:38:26;;;;;;;;;;;14.60;99.90;;;;;;8358779;28;19932;-73
2021/10/14 17:42:28;;;;;;;;;;;14.60;99.90;;;;;;8358641;28;20299;-73
2021/10/14 17:50:38;;;;;;;;;;;14.60;99.90;;;;;;8357811;28;20257;-73
2021/10/14 17:54:40;;;;;;;;;;;14.60;99.90;;;;;;8353497;28;19932;-73
2021/10/14 17:58:41;;;;;;;;;;;14.60;99.90;;;;;;8355404;28;22822;-73
2021/10/14 18:02:51;;;;;;;;;;;14.60;99.90;;;;;;8360001;28;19927;-73
2021/10/14 18:41:17;;;;;;;;;;;14.30;99.90;;;;;;8356147;28;19943;-73
2021/10/14 18:45:19;;;;;;;;;;;14.30;99.90;;;;;;8353607;28;19925;-73
2021/10/14 18:49:23;;;;;;;;;;;14.30;99.90;;;;;;8362083;28;19932;-73
2021/10/14 18:53:24;;;;;;;;;;;14.20;99.90;;;;;;8359288;28;19931;-73
2021/10/14 18:57:26;;;;;;;;;;;14.20;99.90;;;;;;8359082;28;19931;-73
2021/10/14 19:01:28;;;;;;;;;;;14.10;99.90;;;;;;8364137;28;19921;-73
2021/10/14 19:05:36;;;;;;;;;;;14.10;99.90;;;;;;8361224;28;19954;-73
2021/10/14 19:09:55;;;;;;;;;;;14.10;99.90;;;;;;8361294;28;20294;-72
2021/10/14 19:14:01;;;;;;;;;;;14.10;99.90;;;;;;8359374;28;20264;-73
2021/10/14 19:18:33;;;;;;;;;;;14.10;99.90;;;;;;8362511;28;19929;-73
2021/10/14 20:22:51;;;;;;;;;;;13.80;99.90;;;;;;8374373;28;19924;-72
2021/10/14 20:26:52;;;;;;;;;;;13.80;99.90;;;;;;8370613;28;19927;-73
2021/10/14 20:30:54;;;;;;;;;;;13.80;99.90;;;;;;8372889;28;19920;-73
2021/10/14 20:39:16;;;;;;;;;;;13.80;99.90;;;;;;8371991;28;19921;-72
2021/10/14 20:43:17;;;;;;;;;;;13.80;99.90;;;;;;8369557;28;19950;-73
2021/10/14 20:47:19;;;;;;;;;;;13.80;99.90;;;;;;8371008;28;19920;-72
2021/10/14 20:51:21;;;;;;;;;;;13.80;99.90;;;;;;8373588;28;19929;-73
2021/10/14 21:04:03;;;;;;;;;;;13.80;99.90;;;;;;8378027;28;19920;-72
2021/10/14 21:08:05;;;;;;;;;;;13.70;99.90;;;;;;8371616;28;20560;-73
2021/10/14 21:12:07;;;;;;;16.83;12.00;;;13.70;99.90;;;;;;8384821;28;19931;-73
2021/10/14 21:16:09;;;;;;;16.75;10.60;;;13.70;99.90;;;;;;8384651;28;20114;-73
2021/10/14 21:20:12;;;;;;;17.08;11.68;;;13.70;99.90;;;;;;8383777;28;20044;-73
2021/10/14 21:24:16;;;;;;;19.55;12.77;;;13.70;99.90;;;;;;8369099;28;20036;-73
2021/10/14 21:28:34;;;;;;;20.10;12.38;;;13.70;99.90;;;;;;8385069;28;20044;-73
2021/10/14 21:36:56;;;;;;;;;;;13.60;99.90;;;;;;8388551;28;20060;-73
2021/10/14 21:40:58;;;;;;;;;;;13.60;99.90;;;;;;8391276;28;19920;-73
2021/10/14 21:45:00;;;;;;;;;;;13.60;99.90;;;;;;8385754;28;20406;-73
2021/10/14 21:49:02;;;;;;;;;;;13.50;99.90;;;;;;8405304;28;19920;-73
2021/10/14 21:53:03;;;;;;;;;;;13.40;99.90;;;;;;8385095;28;20359;-73
2021/10/14 21:57:05;;;;;;;;;;;13.40;99.90;;;;;;8381419;28;19925;-73
2021/10/14 22:01:07;;;;;;;;;;;13.40;99.90;;;;;;8385949;28;19946;-73
2021/10/14 22:05:09;;;;;;;;;;;13.40;99.90;;;;;;8388966;28;19920;-73
2021/10/14 22:09:11;;;;;;;;;;;13.40;99.90;;;;;;8386333;28;19920;-72
2021/10/14 22:13:21;;;;;;;;;;;13.40;99.90;;;;;;8405896;28;19929;-73
2021/10/14 22:17:22;;;;;;;;;;;13.40;99.90;;;;;;8387894;28;20438;-73
2021/10/14 22:21:24;;;;;;;;;;;13.50;99.90;;;;;;8388577;28;20410;-73
2021/10/14 22:25:26;;;;;;;;;;;13.50;99.90;;;;;;8391918;28;19920;-72
2021/10/14 22:29:28;;;;;;;;;;;13.50;99.90;;;;;;8396890;28;19943;-73
2021/10/14 22:33:29;;;;;;;;;;;13.50;99.90;;;;;;8393536;28;19920;-72
2021/10/14 22:37:31;;;;;;;;;;;13.50;99.90;;;;;;8390217;28;19940;-73
2021/10/14 22:41:33;;;;;;;;;;;13.40;99.90;;;;;;8391636;28;20275;-73
2021/10/14 22:45:34;;;;;;;;;;;13.40;99.90;;;;;;8392530;28;19920;-72
2021/10/14 22:49:36;;;;;;;;;;;13.40;99.90;;;;;;8394376;28;19920;-73
2021/10/14 22:53:38;;;;;;;;;;;13.40;99.90;;;;;;8393211;28;19924;-72
2021/10/14 22:57:39;;;;;;;;;;;13.40;99.90;;;;;;8394912;28;20344;-73
2021/10/14 23:01:41;;;;;;;;;;;13.40;99.90;;;;;;8396699;28;19920;-72
2021/10/14 23:05:43;;;;;;;;;;;13.40;99.90;;;;;;8388621;28;20006;-73
2021/10/14 23:09:44;;;;;;;;;;;13.30;99.90;;;;;;8387281;28;19931;-73
2021/10/14 23:13:46;;;;;;;;;;;13.30;99.90;;;;;;8385709;28;19920;-73
2021/10/14 23:17:48;;;;;;;;;;;13.30;99.90;;;;;;8386551;28;20336;-72
2021/10/14 23:21:50;;;;;;;;;;;13.30;99.90;;;;;;8388867;28;19936;-73
2021/10/14 23:25:51;;;;;;;;;;;13.30;99.90;;;;;;8393736;28;19920;-73
2021/10/14 23:29:53;;;;;;;;;;;13.30;99.90;;;;;;8392382;28;20041;-73
2021/10/14 23:33:55;;;;;;;;;;;13.30;99.90;;;;;;8394022;28;19920;-72
2021/10/14 23:37:56;;;;;;;;;;;13.30;99.90;;;;;;8390680;28;19920;-73
2021/10/14 23:41:58;;;;;;;;;;;13.30;99.90;;;;;;8379593;28;19985;-72
2021/10/14 23:45:59;;;;;;;;;;;13.30;99.90;;;;;;8394461;28;19921;-73
2021/10/14 23:50:01;;;;;;;;;;;13.30;99.90;;;;;;8391117;28;19928;-73
2021/10/14 23:54:03;;;;;;;;;;;13.30;99.90;;;;;;8390597;28;20390;-73
2021/10/14 23:58:05;;;;;;;;;;;13.30;99.90;;;;;;8391025;28;20283;-73
